sensor_id;sensor_type;location;lat;lon;timestamp;P1;durP1;ratioP1;P2;durP2;ratioP2
25639;SDS011;13497;48.322;16.204;2023-12-28T00:00:29;12.63;;;9.90;;
25639;SDS011;13497;48.322;16.204;2023-12-28T00:02:55;11.82;;;8.70;;
25639;SDS011;13497;48.322;16.204;2023-12-28T00:05:21;14.25;;;10.80;;
25639;SDS011;13497;48.322;16.204;2023-12-28T00:07:47;10.57;;;8.15;;
25639;SDS011;13497;48.322;16.204;2023-12-28T00:10:12;11.43;;;8.27;;
25639;SDS011;13497;48.322;16.204;2023-12-28T00:12:38;11.95;;;10.32;;
25639;SDS011;13497;48.322;16.204;2023-12-28T00:15:04;13.40;;;12.07;;
25639;SDS011;13497;48.322;16.204;2023-12-28T00:17:30;12.35;;;8.95;;
25639;SDS011;13497;48.322;16.204;2023-12-28T00:19:55;11.00;;;9.60;;
25639;SDS011;13497;48.322;16.204;2023-12-28T00:22:21;14.32;;;11.30;;
25639;SDS011;13497;48.322;16.204;2023-12-28T00:24:47;13.05;;;10.90;;
25639;SDS011;13497;48.322;16.204;2023-12-28T00:27:13;13.75;;;12.30;;
25639;SDS011;13497;48.322;16.204;2023-12-28T00:29:38;10.38;;;8.75;;
25639;SDS011;13497;48.322;16.204;2023-12-28T00:32:06;12.65;;;8.60;;
25639;SDS011;13497;48.322;16.204;2023-12-28T00:34:31;10.60;;;8.30;;
25639;SDS011;13497;48.322;16.204;2023-12-28T00:36:57;12.38;;;9.48;;
25639;SDS011;13497;48.322;16.204;2023-12-28T00:39:23;13.13;;;9.50;;
25639;SDS011;13497;48.322;16.204;2023-12-28T00:41:48;15.70;;;14.10;;
25639;SDS011;13497;48.322;16.204;2023-12-28T00:44:14;15.20;;;13.10;;
25639;SDS011;13497;48.322;16.204;2023-12-28T00:46:40;11.27;;;10.07;;
25639;SDS011;13497;48.322;16.204;2023-12-28T00:49:05;12.43;;;9.88;;
25639;SDS011;13497;48.322;16.204;2023-12-28T00:51:31;14.80;;;10.07;;
25639;SDS011;13497;48.322;16.204;2023-12-28T00:53:57;12.18;;;10.55;;
25639;SDS011;13497;48.322;16.204;2023-12-28T00:56:22;13.75;;;11.60;;
25639;SDS011;13497;48.322;16.204;2023-12-28T00:58:48;17.27;;;10.77;;
25639;SDS011;13497;48.322;16.204;2023-12-28T01:01:14;13.95;;;12.02;;
25639;SDS011;13497;48.322;16.204;2023-12-28T01:03:40;15.40;;;12.15;;
25639;SDS011;13497;48.322;16.204;2023-12-28T01:06:06;20.08;;;13.63;;
25639;SDS011;13497;48.322;16.204;2023-12-28T01:08:31;14.55;;;11.10;;
25639;SDS011;13497;48.322;16.204;2023-12-28T01:13:24;12.40;;;9.75;;
25639;SDS011;13497;48.322;16.204;2023-12-28T01:15:50;14.18;;;10.93;;
25639;SDS011;13497;48.322;16.204;2023-12-28T01:18:16;13.68;;;11.07;;
25639;SDS011;13497;48.322;16.204;2023-12-28T01:20:42;14.63;;;11.85;;
25639;SDS011;13497;48.322;16.204;2023-12-28T01:23:07;14.80;;;12.43;;
25639;SDS011;13497;48.322;16.204;2023-12-28T01:25:33;15.77;;;11.40;;
25639;SDS011;13497;48.322;16.204;2023-12-28T01:27:59;15.13;;;10.93;;
25639;SDS011;13497;48.322;16.204;2023-12-28T01:30:25;13.98;;;11.48;;
25639;SDS011;13497;48.322;16.204;2023-12-28T01:32:51;16.13;;;12.57;;
25639;SDS011;13497;48.322;16.204;2023-12-28T01:35:17;16.70;;;13.40;;
25639;SDS011;13497;48.322;16.204;2023-12-28T01:37:42;14.23;;;11.85;;
25639;SDS011;13497;48.322;16.204;2023-12-28T01:40:08;13.25;;;10.75;;
25639;SDS011;13497;48.322;16.204;2023-12-28T01:42:34;12.32;;;9.40;;
25639;SDS011;13497;48.322;16.204;2023-12-28T01:45:00;12.45;;;10.65;;
25639;SDS011;13497;48.322;16.204;2023-12-28T01:47:26;12.48;;;10.88;;
25639;SDS011;13497;48.322;16.204;2023-12-28T01:49:54;12.35;;;10.32;;
25639;SDS011;13497;48.322;16.204;2023-12-28T01:54:46;11.82;;;8.57;;
25639;SDS011;13497;48.322;16.204;2023-12-28T01:57:13;15.18;;;11.43;;
25639;SDS011;13497;48.322;16.204;2023-12-28T01:59:39;11.80;;;10.50;;
25639;SDS011;13497;48.322;16.204;2023-12-28T02:02:06;13.00;;;11.05;;
25639;SDS011;13497;48.322;16.204;2023-12-28T02:04:32;11.45;;;10.18;;
25639;SDS011;13497;48.322;16.204;2023-12-28T02:06:58;20.00;;;18.20;;
25639;SDS011;13497;48.322;16.204;2023-12-28T02:09:25;20.83;;;19.02;;
25639;SDS011;13497;48.322;16.204;2023-12-28T02:11:51;11.40;;;10.15;;
25639;SDS011;13497;48.322;16.204;2023-12-28T02:14:18;12.70;;;10.88;;
25639;SDS011;13497;48.322;16.204;2023-12-28T02:16:49;13.85;;;12.45;;
25639;SDS011;13497;48.322;16.204;2023-12-28T02:19:29;15.82;;;14.40;;
25639;SDS011;13497;48.322;16.204;2023-12-28T02:21:59;15.85;;;11.80;;
25639;SDS011;13497;48.322;16.204;2023-12-28T02:24:25;11.57;;;9.68;;
25639;SDS011;13497;48.322;16.204;2023-12-28T02:26:51;13.77;;;9.90;;
25639;SDS011;13497;48.322;16.204;2023-12-28T02:29:17;13.45;;;11.43;;
25639;SDS011;13497;48.322;16.204;2023-12-28T02:31:48;16.92;;;15.43;;
25639;SDS011;13497;48.322;16.204;2023-12-28T02:34:23;10.82;;;9.30;;
25639;SDS011;13497;48.322;16.204;2023-12-28T02:36:57;13.30;;;11.93;;
25639;SDS011;13497;48.322;16.204;2023-12-28T02:39:24;17.42;;;11.15;;
25639;SDS011;13497;48.322;16.204;2023-12-28T02:44:17;20.92;;;14.18;;
25639;SDS011;13497;48.322;16.204;2023-12-28T02:46:44;16.73;;;11.05;;
25639;SDS011;13497;48.322;16.204;2023-12-28T02:49:09;16.83;;;13.40;;
25639;SDS011;13497;48.322;16.204;2023-12-28T02:54:02;19.20;;;12.15;;
25639;SDS011;13497;48.322;16.204;2023-12-28T02:56:28;21.70;;;10.32;;
25639;SDS011;13497;48.322;16.204;2023-12-28T02:58:54;34.42;;;14.02;;
25639;SDS011;13497;48.322;16.204;2023-12-28T03:01:20;38.72;;;16.02;;
25639;SDS011;13497;48.322;16.204;2023-12-28T03:03:46;37.70;;;17.38;;
25639;SDS011;13497;48.322;16.204;2023-12-28T03:06:11;22.15;;;14.15;;
25639;SDS011;13497;48.322;16.204;2023-12-28T03:08:37;25.75;;;13.60;;
25639;SDS011;13497;48.322;16.204;2023-12-28T03:11:02;27.08;;;14.25;;
25639;SDS011;13497;48.322;16.204;2023-12-28T03:13:28;25.50;;;16.55;;
25639;SDS011;13497;48.322;16.204;2023-12-28T03:15:54;25.42;;;13.27;;
25639;SDS011;13497;48.322;16.204;2023-12-28T03:18:20;24.50;;;13.52;;
25639;SDS011;13497;48.322;16.204;2023-12-28T03:20:46;21.25;;;13.85;;
25639;SDS011;13497;48.322;16.204;2023-12-28T03:23:11;25.25;;;14.73;;
25639;SDS011;13497;48.322;16.204;2023-12-28T03:25:38;27.80;;;14.73;;
25639;SDS011;13497;48.322;16.204;2023-12-28T03:28:03;24.10;;;13.88;;
25639;SDS011;13497;48.322;16.204;2023-12-28T03:30:29;30.67;;;14.65;;
25639;SDS011;13497;48.322;16.204;2023-12-28T03:32:55;18.27;;;13.02;;
25639;SDS011;13497;48.322;16.204;2023-12-28T03:35:20;14.82;;;9.93;;
25639;SDS011;13497;48.322;16.204;2023-12-28T03:37:46;18.40;;;16.60;;
25639;SDS011;13497;48.322;16.204;2023-12-28T03:40:12;21.00;;;18.90;;
25639;SDS011;13497;48.322;16.204;2023-12-28T03:42:37;15.32;;;13.32;;
25639;SDS011;13497;48.322;16.204;2023-12-28T03:45:03;13.43;;;11.00;;
25639;SDS011;13497;48.322;16.204;2023-12-28T03:47:29;14.60;;;9.95;;
25639;SDS011;13497;48.322;16.204;2023-12-28T03:49:55;23.08;;;20.95;;
25639;SDS011;13497;48.322;16.204;2023-12-28T03:52:22;14.45;;;9.73;;
25639;SDS011;13497;48.322;16.204;2023-12-28T03:54:51;19.13;;;13.00;;
25639;SDS011;13497;48.322;16.204;2023-12-28T03:57:16;16.80;;;11.10;;
25639;SDS011;13497;48.322;16.204;2023-12-28T03:59:42;19.75;;;11.35;;
25639;SDS011;13497;48.322;16.204;2023-12-28T04:02:07;18.85;;;14.18;;
25639;SDS011;13497;48.322;16.204;2023-12-28T04:04:33;24.05;;;18.10;;
25639;SDS011;13497;48.322;16.204;2023-12-28T04:06:59;24.05;;;13.75;;
25639;SDS011;13497;48.322;16.204;2023-12-28T04:09:24;21.55;;;13.23;;
25639;SDS011;13497;48.322;16.204;2023-12-28T04:11:50;20.75;;;14.38;;
25639;SDS011;13497;48.322;16.204;2023-12-28T04:14:16;19.02;;;12.57;;
25639;SDS011;13497;48.322;16.204;2023-12-28T04:16:42;22.60;;;12.07;;
25639;SDS011;13497;48.322;16.204;2023-12-28T04:19:07;18.15;;;12.38;;
25639;SDS011;13497;48.322;16.204;2023-12-28T04:21:33;25.85;;;16.05;;
25639;SDS011;13497;48.322;16.204;2023-12-28T04:23:59;18.65;;;13.50;;
25639;SDS011;13497;48.322;16.204;2023-12-28T04:26:24;19.10;;;11.75;;
25639;SDS011;13497;48.322;16.204;2023-12-28T04:28:50;17.55;;;13.70;;
25639;SDS011;13497;48.322;16.204;2023-12-28T04:31:15;16.40;;;12.68;;
25639;SDS011;13497;48.322;16.204;2023-12-28T04:33:41;19.08;;;12.10;;
25639;SDS011;13497;48.322;16.204;2023-12-28T04:36:07;24.90;;;20.20;;
25639;SDS011;13497;48.322;16.204;2023-12-28T04:38:33;16.90;;;11.77;;
25639;SDS011;13497;48.322;16.204;2023-12-28T04:40:59;16.83;;;11.20;;
25639;SDS011;13497;48.322;16.204;2023-12-28T04:43:25;14.13;;;11.45;;
25639;SDS011;13497;48.322;16.204;2023-12-28T04:45:51;20.50;;;18.40;;
25639;SDS011;13497;48.322;16.204;2023-12-28T04:48:17;16.77;;;11.90;;
25639;SDS011;13497;48.322;16.204;2023-12-28T04:50:48;16.83;;;11.57;;
25639;SDS011;13497;48.322;16.204;2023-12-28T04:53:14;17.35;;;12.85;;
25639;SDS011;13497;48.322;16.204;2023-12-28T04:55:40;17.73;;;12.48;;
25639;SDS011;13497;48.322;16.204;2023-12-28T04:58:06;26.02;;;16.63;;
25639;SDS011;13497;48.322;16.204;2023-12-28T05:00:32;19.33;;;10.10;;
25639;SDS011;13497;48.322;16.204;2023-12-28T05:02:57;22.98;;;12.07;;
25639;SDS011;13497;48.322;16.204;2023-12-28T05:05:23;16.00;;;11.30;;
25639;SDS011;13497;48.322;16.204;2023-12-28T05:07:49;20.70;;;18.50;;
25639;SDS011;13497;48.322;16.204;2023-12-28T05:10:14;20.27;;;18.25;;
25639;SDS011;13497;48.322;16.204;2023-12-28T05:12:40;22.45;;;11.18;;
25639;SDS011;13497;48.322;16.204;2023-12-28T05:15:06;19.02;;;9.93;;
25639;SDS011;13497;48.322;16.204;2023-12-28T05:17:32;20.25;;;14.57;;
25639;SDS011;13497;48.322;16.204;2023-12-28T05:19:57;15.70;;;10.60;;
25639;SDS011;13497;48.322;16.204;2023-12-28T05:22:23;16.42;;;12.65;;
25639;SDS011;13497;48.322;16.204;2023-12-28T05:24:49;17.42;;;13.38;;
25639;SDS011;13497;48.322;16.204;2023-12-28T05:27:14;15.93;;;11.48;;
25639;SDS011;13497;48.322;16.204;2023-12-28T05:29:41;19.15;;;11.55;;
25639;SDS011;13497;48.322;16.204;2023-12-28T05:32:06;18.60;;;13.52;;
25639;SDS011;13497;48.322;16.204;2023-12-28T05:34:32;19.08;;;13.27;;
25639;SDS011;13497;48.322;16.204;2023-12-28T05:36:58;22.50;;;20.52;;
25639;SDS011;13497;48.322;16.204;2023-12-28T05:39:23;19.95;;;11.77;;
25639;SDS011;13497;48.322;16.204;2023-12-28T05:41:49;20.60;;;18.55;;
25639;SDS011;13497;48.322;16.204;2023-12-28T05:44:16;13.60;;;10.82;;
25639;SDS011;13497;48.322;16.204;2023-12-28T05:46:42;14.57;;;10.77;;
25639;SDS011;13497;48.322;16.204;2023-12-28T05:49:08;16.00;;;12.35;;
25639;SDS011;13497;48.322;16.204;2023-12-28T05:51:37;16.90;;;10.93;;
25639;SDS011;13497;48.322;16.204;2023-12-28T05:54:04;17.63;;;10.75;;
25639;SDS011;13497;48.322;16.204;2023-12-28T05:56:31;16.17;;;11.80;;
25639;SDS011;13497;48.322;16.204;2023-12-28T05:58:56;25.17;;;18.77;;
25639;SDS011;13497;48.322;16.204;2023-12-28T06:01:22;22.65;;;13.20;;
25639;SDS011;13497;48.322;16.204;2023-12-28T06:03:47;15.90;;;10.88;;
25639;SDS011;13497;48.322;16.204;2023-12-28T06:06:15;22.17;;;13.73;;
25639;SDS011;13497;48.322;16.204;2023-12-28T06:08:41;24.27;;;12.15;;
25639;SDS011;13497;48.322;16.204;2023-12-28T06:11:07;26.75;;;13.30;;
25639;SDS011;13497;48.322;16.204;2023-12-28T06:13:33;41.42;;;11.00;;
25639;SDS011;13497;48.322;16.204;2023-12-28T06:15:58;35.78;;;19.10;;
25639;SDS011;13497;48.322;16.204;2023-12-28T06:18:24;31.13;;;11.98;;
25639;SDS011;13497;48.322;16.204;2023-12-28T06:20:50;39.10;;;13.38;;
25639;SDS011;13497;48.322;16.204;2023-12-28T06:23:15;30.85;;;14.73;;
25639;SDS011;13497;48.322;16.204;2023-12-28T06:25:41;26.90;;;11.75;;
25639;SDS011;13497;48.322;16.204;2023-12-28T06:28:07;26.38;;;11.55;;
25639;SDS011;13497;48.322;16.204;2023-12-28T06:30:33;26.65;;;11.70;;
25639;SDS011;13497;48.322;16.204;2023-12-28T06:32:58;33.05;;;12.90;;
25639;SDS011;13497;48.322;16.204;2023-12-28T06:35:24;41.97;;;20.17;;
25639;SDS011;13497;48.322;16.204;2023-12-28T06:37:49;21.42;;;11.77;;
25639;SDS011;13497;48.322;16.204;2023-12-28T06:40:15;23.80;;;13.27;;
25639;SDS011;13497;48.322;16.204;2023-12-28T06:42:41;17.20;;;11.00;;
25639;SDS011;13497;48.322;16.204;2023-12-28T06:47:34;12.77;;;9.98;;
25639;SDS011;13497;48.322;16.204;2023-12-28T06:50:00;13.65;;;12.35;;
25639;SDS011;13497;48.322;16.204;2023-12-28T06:52:28;13.48;;;9.57;;
25639;SDS011;13497;48.322;16.204;2023-12-28T06:54:56;18.25;;;12.05;;
25639;SDS011;13497;48.322;16.204;2023-12-28T06:57:22;17.05;;;10.52;;
25639;SDS011;13497;48.322;16.204;2023-12-28T06:59:48;14.15;;;10.35;;
25639;SDS011;13497;48.322;16.204;2023-12-28T07:02:13;25.52;;;21.27;;
25639;SDS011;13497;48.322;16.204;2023-12-28T07:04:39;48.97;;;27.65;;
25639;SDS011;13497;48.322;16.204;2023-12-28T07:07:05;17.95;;;11.48;;
25639;SDS011;13497;48.322;16.204;2023-12-28T07:09:30;14.50;;;11.43;;
25639;SDS011;13497;48.322;16.204;2023-12-28T07:11:56;18.52;;;11.50;;
25639;SDS011;13497;48.322;16.204;2023-12-28T07:14:22;21.33;;;13.68;;
25639;SDS011;13497;48.322;16.204;2023-12-28T07:16:47;20.45;;;10.70;;
25639;SDS011;13497;48.322;16.204;2023-12-28T07:19:13;20.58;;;9.68;;
25639;SDS011;13497;48.322;16.204;2023-12-28T07:21:38;28.08;;;11.57;;
25639;SDS011;13497;48.322;16.204;2023-12-28T07:24:04;33.85;;;20.20;;
25639;SDS011;13497;48.322;16.204;2023-12-28T07:26:30;14.70;;;13.02;;
25639;SDS011;13497;48.322;16.204;2023-12-28T07:28:56;16.50;;;12.20;;
25639;SDS011;13497;48.322;16.204;2023-12-28T07:31:22;24.23;;;12.20;;
25639;SDS011;13497;48.322;16.204;2023-12-28T07:33:49;21.02;;;11.23;;
25639;SDS011;13497;48.322;16.204;2023-12-28T07:36:15;19.73;;;18.02;;
25639;SDS011;13497;48.322;16.204;2023-12-28T07:38:40;21.48;;;9.18;;
25639;SDS011;13497;48.322;16.204;2023-12-28T07:41:06;21.90;;;9.32;;
25639;SDS011;13497;48.322;16.204;2023-12-28T07:43:32;23.55;;;10.73;;
25639;SDS011;13497;48.322;16.204;2023-12-28T07:45:58;25.38;;;20.48;;
25639;SDS011;13497;48.322;16.204;2023-12-28T07:48:23;27.17;;;12.43;;
25639;SDS011;13497;48.322;16.204;2023-12-28T07:50:49;18.63;;;9.85;;
25639;SDS011;13497;48.322;16.204;2023-12-28T07:53:16;38.22;;;17.33;;
25639;SDS011;13497;48.322;16.204;2023-12-28T07:55:42;28.27;;;12.35;;
25639;SDS011;13497;48.322;16.204;2023-12-28T07:58:08;29.90;;;10.07;;
25639;SDS011;13497;48.322;16.204;2023-12-28T08:00:34;25.02;;;12.45;;
25639;SDS011;13497;48.322;16.204;2023-12-28T08:03:00;39.17;;;11.30;;
25639;SDS011;13497;48.322;16.204;2023-12-28T08:05:25;33.50;;;10.13;;
25639;SDS011;13497;48.322;16.204;2023-12-28T08:07:51;24.42;;;11.23;;
25639;SDS011;13497;48.322;16.204;2023-12-28T08:10:16;34.10;;;12.82;;
25639;SDS011;13497;48.322;16.204;2023-12-28T08:12:42;42.53;;;12.05;;
25639;SDS011;13497;48.322;16.204;2023-12-28T08:15:08;29.77;;;11.65;;
25639;SDS011;13497;48.322;16.204;2023-12-28T08:17:34;33.65;;;10.90;;
25639;SDS011;13497;48.322;16.204;2023-12-28T08:19:59;49.33;;;18.38;;
25639;SDS011;13497;48.322;16.204;2023-12-28T08:22:25;45.58;;;12.40;;
25639;SDS011;13497;48.322;16.204;2023-12-28T08:24:53;30.58;;;13.57;;
25639;SDS011;13497;48.322;16.204;2023-12-28T08:27:18;23.88;;;11.73;;
25639;SDS011;13497;48.322;16.204;2023-12-28T08:29:44;36.65;;;13.75;;
25639;SDS011;13497;48.322;16.204;2023-12-28T08:32:10;44.85;;;19.48;;
25639;SDS011;13497;48.322;16.204;2023-12-28T08:34:36;32.83;;;10.57;;
25639;SDS011;13497;48.322;16.204;2023-12-28T08:37:02;17.70;;;11.50;;
25639;SDS011;13497;48.322;16.204;2023-12-28T08:39:28;20.70;;;16.98;;
25639;SDS011;13497;48.322;16.204;2023-12-28T08:41:55;18.80;;;13.18;;
25639;SDS011;13497;48.322;16.204;2023-12-28T08:44:21;17.30;;;10.77;;
25639;SDS011;13497;48.322;16.204;2023-12-28T08:46:46;20.33;;;12.18;;
25639;SDS011;13497;48.322;16.204;2023-12-28T08:49:12;54.60;;;14.18;;
25639;SDS011;13497;48.322;16.204;2023-12-28T08:51:40;40.25;;;18.17;;
25639;SDS011;13497;48.322;16.204;2023-12-28T08:54:06;24.05;;;10.88;;
25639;SDS011;13497;48.322;16.204;2023-12-28T08:56:33;36.05;;;13.52;;
25639;SDS011;13497;48.322;16.204;2023-12-28T08:58:59;22.23;;;10.60;;
25639;SDS011;13497;48.322;16.204;2023-12-28T09:01:24;32.92;;;12.57;;
25639;SDS011;13497;48.322;16.204;2023-12-28T09:03:50;41.78;;;12.77;;
25639;SDS011;13497;48.322;16.204;2023-12-28T09:06:18;23.85;;;13.38;;
25639;SDS011;13497;48.322;16.204;2023-12-28T09:08:45;27.65;;;13.52;;
25639;SDS011;13497;48.322;16.204;2023-12-28T09:11:13;34.58;;;12.95;;
25639;SDS011;13497;48.322;16.204;2023-12-28T09:13:39;28.95;;;14.38;;
25639;SDS011;13497;48.322;16.204;2023-12-28T09:16:07;25.15;;;14.27;;
25639;SDS011;13497;48.322;16.204;2023-12-28T09:18:34;43.65;;;15.60;;
25639;SDS011;13497;48.322;16.204;2023-12-28T09:21:02;40.67;;;12.82;;
25639;SDS011;13497;48.322;16.204;2023-12-28T09:23:29;30.10;;;10.98;;
25639;SDS011;13497;48.322;16.204;2023-12-28T09:25:56;31.23;;;12.07;;
25639;SDS011;13497;48.322;16.204;2023-12-28T09:28:23;24.67;;;11.95;;
25639;SDS011;13497;48.322;16.204;2023-12-28T09:30:49;23.30;;;10.82;;
25639;SDS011;13497;48.322;16.204;2023-12-28T09:33:14;42.47;;;15.63;;
25639;SDS011;13497;48.322;16.204;2023-12-28T09:35:41;19.20;;;12.77;;
25639;SDS011;13497;48.322;16.204;2023-12-28T09:38:07;23.58;;;11.73;;
25639;SDS011;13497;48.322;16.204;2023-12-28T09:40:33;21.65;;;12.23;;
25639;SDS011;13497;48.322;16.204;2023-12-28T09:43:05;18.48;;;13.55;;
25639;SDS011;13497;48.322;16.204;2023-12-28T09:45:34;19.58;;;12.48;;
25639;SDS011;13497;48.322;16.204;2023-12-28T09:48:00;23.70;;;18.30;;
25639;SDS011;13497;48.322;16.204;2023-12-28T09:50:28;28.45;;;12.48;;
25639;SDS011;13497;48.322;16.204;2023-12-28T09:52:53;36.45;;;14.75;;
25639;SDS011;13497;48.322;16.204;2023-12-28T09:55:19;23.35;;;14.90;;
25639;SDS011;13497;48.322;16.204;2023-12-28T09:57:45;24.45;;;18.60;;
25639;SDS011;13497;48.322;16.204;2023-12-28T10:00:12;28.65;;;16.52;;
25639;SDS011;13497;48.322;16.204;2023-12-28T10:02:39;37.95;;;28.00;;
25639;SDS011;13497;48.322;16.204;2023-12-28T10:05:08;28.60;;;17.77;;
25639;SDS011;13497;48.322;16.204;2023-12-28T10:07:42;27.27;;;16.52;;
25639;SDS011;13497;48.322;16.204;2023-12-28T10:10:09;35.70;;;17.83;;
25639;SDS011;13497;48.322;16.204;2023-12-28T10:12:36;25.23;;;18.48;;
25639;SDS011;13497;48.322;16.204;2023-12-28T10:15:02;26.35;;;17.45;;
25639;SDS011;13497;48.322;16.204;2023-12-28T10:17:34;26.42;;;14.90;;
25639;SDS011;13497;48.322;16.204;2023-12-28T10:20:01;26.23;;;17.90;;
25639;SDS011;13497;48.322;16.204;2023-12-28T10:22:30;24.50;;;17.02;;
25639;SDS011;13497;48.322;16.204;2023-12-28T10:27:22;22.73;;;15.55;;
25639;SDS011;13497;48.322;16.204;2023-12-28T10:29:48;30.08;;;15.27;;
25639;SDS011;13497;48.322;16.204;2023-12-28T10:32:14;34.13;;;21.73;;
25639;SDS011;13497;48.322;16.204;2023-12-28T10:34:40;30.13;;;17.25;;
25639;SDS011;13497;48.322;16.204;2023-12-28T10:37:06;29.17;;;19.63;;
25639;SDS011;13497;48.322;16.204;2023-12-28T10:39:32;32.92;;;18.90;;
25639;SDS011;13497;48.322;16.204;2023-12-28T10:41:59;27.77;;;16.45;;
25639;SDS011;13497;48.322;16.204;2023-12-28T10:44:31;25.90;;;18.55;;
25639;SDS011;13497;48.322;16.204;2023-12-28T10:47:03;31.75;;;21.33;;
25639;SDS011;13497;48.322;16.204;2023-12-28T10:49:33;32.78;;;19.48;;
25639;SDS011;13497;48.322;16.204;2023-12-28T10:52:01;31.27;;;20.13;;
25639;SDS011;13497;48.322;16.204;2023-12-28T10:57:27;37.47;;;18.70;;
25639;SDS011;13497;48.322;16.204;2023-12-28T11:02:45;32.72;;;18.50;;
25639;SDS011;13497;48.322;16.204;2023-12-28T11:05:16;38.17;;;17.80;;
25639;SDS011;13497;48.322;16.204;2023-12-28T11:07:42;30.55;;;17.67;;
25639;SDS011;13497;48.322;16.204;2023-12-28T11:10:09;26.27;;;15.88;;
25639;SDS011;13497;48.322;16.204;2023-12-28T11:12:36;29.48;;;16.88;;
25639;SDS011;13497;48.322;16.204;2023-12-28T11:15:04;36.20;;;18.08;;
25639;SDS011;13497;48.322;16.204;2023-12-28T11:17:31;28.30;;;18.15;;
25639;SDS011;13497;48.322;16.204;2023-12-28T11:19:58;38.65;;;23.88;;
25639;SDS011;13497;48.322;16.204;2023-12-28T11:22:24;28.88;;;17.55;;
25639;SDS011;13497;48.322;16.204;2023-12-28T11:24:53;31.63;;;17.25;;
25639;SDS011;13497;48.322;16.204;2023-12-28T11:27:21;33.83;;;16.95;;
25639;SDS011;13497;48.322;16.204;2023-12-28T11:29:48;31.15;;;18.88;;
25639;SDS011;13497;48.322;16.204;2023-12-28T11:32:14;29.90;;;17.92;;
25639;SDS011;13497;48.322;16.204;2023-12-28T11:34:40;35.10;;;17.65;;
25639;SDS011;13497;48.322;16.204;2023-12-28T11:37:12;30.15;;;16.67;;
25639;SDS011;13497;48.322;16.204;2023-12-28T11:39:43;34.50;;;19.38;;
25639;SDS011;13497;48.322;16.204;2023-12-28T11:42:09;29.10;;;16.77;;
25639;SDS011;13497;48.322;16.204;2023-12-28T11:44:39;29.60;;;24.63;;
25639;SDS011;13497;48.322;16.204;2023-12-28T11:47:12;34.78;;;21.85;;
25639;SDS011;13497;48.322;16.204;2023-12-28T11:49:39;41.13;;;17.85;;
25639;SDS011;13497;48.322;16.204;2023-12-28T11:52:06;47.35;;;20.73;;
25639;SDS011;13497;48.322;16.204;2023-12-28T11:54:33;30.20;;;17.10;;
25639;SDS011;13497;48.322;16.204;2023-12-28T11:56:58;29.02;;;24.58;;
25639;SDS011;13497;48.322;16.204;2023-12-28T11:59:24;29.98;;;25.83;;
25639;SDS011;13497;48.322;16.204;2023-12-28T12:01:50;33.72;;;23.30;;
25639;SDS011;13497;48.322;16.204;2023-12-28T12:04:20;34.28;;;19.75;;
25639;SDS011;13497;48.322;16.204;2023-12-28T12:06:49;29.27;;;16.70;;
25639;SDS011;13497;48.322;16.204;2023-12-28T12:09:17;31.30;;;18.77;;
25639;SDS011;13497;48.322;16.204;2023-12-28T12:11:47;27.92;;;18.05;;
25639;SDS011;13497;48.322;16.204;2023-12-28T12:14:13;29.52;;;17.25;;
25639;SDS011;13497;48.322;16.204;2023-12-28T12:16:39;33.05;;;17.08;;
25639;SDS011;13497;48.322;16.204;2023-12-28T12:19:05;26.98;;;16.23;;
25639;SDS011;13497;48.322;16.204;2023-12-28T12:21:32;36.90;;;16.85;;
25639;SDS011;13497;48.322;16.204;2023-12-28T12:24:01;29.55;;;18.67;;
25639;SDS011;13497;48.322;16.204;2023-12-28T12:26:28;45.40;;;27.55;;
25639;SDS011;13497;48.322;16.204;2023-12-28T12:28:54;27.30;;;17.63;;
25639;SDS011;13497;48.322;16.204;2023-12-28T12:31:20;29.52;;;17.55;;
25639;SDS011;13497;48.322;16.204;2023-12-28T12:33:47;37.97;;;20.20;;
25639;SDS011;13497;48.322;16.204;2023-12-28T12:36:12;44.90;;;27.30;;
25639;SDS011;13497;48.322;16.204;2023-12-28T12:38:38;30.30;;;19.73;;
25639;SDS011;13497;48.322;16.204;2023-12-28T12:41:04;29.85;;;18.52;;
25639;SDS011;13497;48.322;16.204;2023-12-28T12:43:30;28.35;;;17.67;;
25639;SDS011;13497;48.322;16.204;2023-12-28T12:45:56;33.08;;;22.00;;
25639;SDS011;13497;48.322;16.204;2023-12-28T12:48:22;39.20;;;18.77;;
25639;SDS011;13497;48.322;16.204;2023-12-28T12:50:47;31.83;;;18.42;;
25639;SDS011;13497;48.322;16.204;2023-12-28T12:53:13;50.20;;;24.52;;
25639;SDS011;13497;48.322;16.204;2023-12-28T12:55:39;34.50;;;19.77;;
25639;SDS011;13497;48.322;16.204;2023-12-28T12:58:10;30.02;;;16.17;;
25639;SDS011;13497;48.322;16.204;2023-12-28T13:00:37;34.30;;;18.45;;
25639;SDS011;13497;48.322;16.204;2023-12-28T13:03:07;29.58;;;18.52;;
25639;SDS011;13497;48.322;16.204;2023-12-28T13:05:34;32.72;;;18.38;;
25639;SDS011;13497;48.322;16.204;2023-12-28T13:12:51;36.92;;;19.90;;
25639;SDS011;13497;48.322;16.204;2023-12-28T13:15:18;32.45;;;15.80;;
25639;SDS011;13497;48.322;16.204;2023-12-28T13:17:44;31.30;;;18.73;;
25639;SDS011;13497;48.322;16.204;2023-12-28T13:20:09;29.23;;;18.23;;
25639;SDS011;13497;48.322;16.204;2023-12-28T13:22:36;30.58;;;19.17;;
25639;SDS011;13497;48.322;16.204;2023-12-28T13:25:01;33.08;;;18.70;;
25639;SDS011;13497;48.322;16.204;2023-12-28T13:27:28;30.80;;;17.17;;
25639;SDS011;13497;48.322;16.204;2023-12-28T13:29:54;29.38;;;18.58;;
25639;SDS011;13497;48.322;16.204;2023-12-28T13:32:20;29.80;;;17.02;;
25639;SDS011;13497;48.322;16.204;2023-12-28T13:34:48;34.95;;;17.20;;
25639;SDS011;13497;48.322;16.204;2023-12-28T13:37:15;28.92;;;18.95;;
25639;SDS011;13497;48.322;16.204;2023-12-28T13:39:41;29.23;;;18.95;;
25639;SDS011;13497;48.322;16.204;2023-12-28T13:42:07;32.92;;;19.67;;
25639;SDS011;13497;48.322;16.204;2023-12-28T13:44:36;30.10;;;18.98;;
25639;SDS011;13497;48.322;16.204;2023-12-28T13:47:02;28.67;;;17.30;;
25639;SDS011;13497;48.322;16.204;2023-12-28T13:49:28;33.28;;;18.70;;
25639;SDS011;13497;48.322;16.204;2023-12-28T13:51:54;45.58;;;18.70;;
25639;SDS011;13497;48.322;16.204;2023-12-28T13:54:20;29.35;;;18.13;;
25639;SDS011;13497;48.322;16.204;2023-12-28T13:56:46;28.25;;;15.73;;
25639;SDS011;13497;48.322;16.204;2023-12-28T13:59:12;25.90;;;19.85;;
25639;SDS011;13497;48.322;16.204;2023-12-28T14:01:38;25.67;;;16.58;;
25639;SDS011;13497;48.322;16.204;2023-12-28T14:04:05;29.13;;;18.88;;
25639;SDS011;13497;48.322;16.204;2023-12-28T14:06:31;28.65;;;18.88;;
25639;SDS011;13497;48.322;16.204;2023-12-28T14:08:57;25.00;;;15.52;;
25639;SDS011;13497;48.322;16.204;2023-12-28T14:11:25;28.77;;;17.77;;
25639;SDS011;13497;48.322;16.204;2023-12-28T14:13:51;35.05;;;20.25;;
25639;SDS011;13497;48.322;16.204;2023-12-28T14:16:17;29.80;;;19.35;;
25639;SDS011;13497;48.322;16.204;2023-12-28T14:18:42;30.35;;;17.58;;
25639;SDS011;13497;48.322;16.204;2023-12-28T14:21:08;28.05;;;17.52;;
25639;SDS011;13497;48.322;16.204;2023-12-28T14:23:35;35.35;;;20.10;;
25639;SDS011;13497;48.322;16.204;2023-12-28T14:26:07;38.25;;;23.35;;
25639;SDS011;13497;48.322;16.204;2023-12-28T14:28:41;26.98;;;17.10;;
25639;SDS011;13497;48.322;16.204;2023-12-28T14:31:11;31.80;;;18.05;;